Time;durP1;ratioP1;P1;durP2;ratioP2;P2;SDS_P1;SDS_P2;PMS_P1;PMS_P2;Temp;Humidity;BMP_temperature;BMP_pressure;BME280_temperature;BME280_humidity;BME280_pressure;Samples;Min_cycle;Max_cycle;Signal;HPM_P1;HPM_P2
2023/10/05 00:02:08;;;;;;;4.30;2.08;;;;;;;;;;5110729;28;20475;-84
2023/10/05 00:04:41;;;;;;;3.53;1.80;;;;;;;;;;5110170;28;20024;-86
2023/10/05 00:07:19;;;;;;;4.75;2.00;;;;;;;;;;5090575;28;20035;-86
2023/10/05 00:09:46;;;;;;;4.70;1.90;;;;;;;;;;5110897;28;20103;-86
2023/10/05 00:12:18;;;;;;;7.35;2.60;;;;;;;;;;5110126;28;20039;-85
2023/10/05 00:14:48;;;;;;;3.72;1.70;;;;;;;;;;5110530;28;20099;-85
2023/10/05 00:17:14;;;;;;;3.10;1.90;;;;;;;;;;5089069;28;20080;-85
2023/10/05 00:19:40;;;;;;;5.80;2.17;;;;;;;;;;5088806;28;20027;-86
2023/10/05 00:22:07;;;;;;;6.13;1.80;;;;;;;;;;5092387;28;20019;-84
2023/10/05 00:24:37;;;;;;;4.22;1.98;;;;;;;;;;5093192;28;20468;-84
2023/10/05 00:27:05;;;;;;;6.57;1.85;;;;;;;;;;5110852;28;20039;-86
2023/10/05 00:29:47;;;;;;;5.25;1.98;;;;;;;;;;5110319;28;20026;-85
2023/10/05 00:32:19;;;;;;;6.78;2.13;;;;;;;;;;5110270;28;20026;-87
2023/10/05 00:34:51;;;;;;;4.65;2.00;;;;;;;;;;5092165;28;20042;-86
2023/10/05 00:37:17;;;;;;;5.22;2.15;;;;;;;;;;5110470;28;20383;-86
2023/10/05 00:39:49;;;;;;;4.57;1.98;;;;;;;;;;5092211;28;20059;-85
2023/10/05 00:42:16;;;;;;;10.60;2.13;;;;;;;;;;5109692;28;20030;-85
2023/10/05 00:44:43;;;;;;;3.08;1.95;;;;;;;;;;5091983;28;20027;-84
2023/10/05 00:47:13;;;;;;;5.13;2.20;;;;;;;;;;5110750;28;20562;-85
2023/10/05 00:49:59;;;;;;;8.13;2.35;;;;;;;;;;5109993;28;20414;-85
2023/10/05 00:52:25;;;;;;;3.10;2.03;;;;;;;;;;5092138;28;20450;-83
2023/10/05 00:54:52;;;;;;;4.22;1.85;;;;;;;;;;5109822;28;20486;-85
2023/10/05 00:57:22;;;;;;;6.27;2.07;;;;;;;;;;5110138;28;20020;-85
2023/10/05 01:02:31;;;;;;;3.40;1.75;;;;;;;;;;5108840;28;20487;-86
2023/10/05 01:05:01;;;;;;;4.90;1.95;;;;;;;;;;5090852;28;20035;-84
2023/10/05 01:12:39;;;;;;;5.30;1.90;;;;;;;;;;5109617;28;20032;-85
2023/10/05 01:15:15;;;;;;;5.43;2.08;;;;;;;;;;5091426;28;20039;-85
2023/10/05 01:17:41;;;;;;;5.07;2.03;;;;;;;;;;5109737;28;20020;-85
2023/10/05 01:20:29;;;;;;;5.85;1.95;;;;;;;;;;5092183;28;20035;-84
2023/10/05 01:22:56;;;;;;;3.75;2.10;;;;;;;;;;5109264;28;20070;-84
2023/10/05 01:25:22;;;;;;;5.25;2.13;;;;;;;;;;5091432;28;20547;-84
2023/10/05 01:27:50;;;;;;;5.10;2.00;;;;;;;;;;5091438;28;20054;-87
2023/10/05 01:30:16;;;;;;;7.18;2.00;;;;;;;;;;5091475;28;20386;-87
2023/10/05 01:32:42;;;;;;;6.10;2.00;;;;;;;;;;5109606;28;20091;-84
2023/10/05 01:35:15;;;;;;;6.82;2.00;;;;;;;;;;5109907;28;20024;-87
2023/10/05 01:37:43;;;;;;;3.60;2.00;;;;;;;;;;5109916;28;20089;-87
2023/10/05 01:42:47;;;;;;;5.53;1.90;;;;;;;;;;5110173;28;19903;-83
2023/10/05 01:45:20;;;;;;;;;;;;;;;;;;5095761;28;20064;-84
2023/10/05 01:47:46;;;;;;;5.05;1.77;;;;;;;;;;5113745;28;19916;-86
2023/10/05 01:50:18;;;;;;;2.78;1.80;;;;;;;;;;5096101;28;20040;-84
2023/10/05 01:52:45;;;;;;;4.85;1.90;;;;;;;;;;5113144;28;20084;-84
2023/10/05 01:55:14;;;;;;;5.90;1.80;;;;;;;;;;5093982;28;20114;-84
2023/10/05 01:57:42;;;;;;;;;;;;;;;;;;5114736;28;20030;-86
2023/10/05 02:00:15;;;;;;;3.90;2.10;;;;;;;;;;5094782;28;19908;-86
2023/10/05 02:02:46;;;;;;;5.20;2.40;;;;;;;;;;5114055;28;20038;-84
2023/10/05 02:05:14;;;;;;;7.03;2.42;;;;;;;;;;5113717;28;20036;-85
2023/10/05 02:07:40;;;;;;;5.72;2.22;;;;;;;;;;5114069;28;20023;-85
2023/10/05 02:10:09;;;;;;;6.55;2.17;;;;;;;;;;5095146;28;20028;-83
2023/10/05 02:12:36;;;;;;;11.40;3.28;;;;;;;;;;5113157;28;20062;-84
2023/10/05 02:15:03;;;;;;;4.07;2.28;;;;;;;;;;5092933;28;20120;-84
2023/10/05 02:17:29;;;;;;;3.92;2.20;;;;;;;;;;5112023;28;20399;-86
2023/10/05 02:19:56;;;;;;;8.30;2.53;;;;;;;;;;5113201;28;20031;-86
2023/10/05 02:22:22;;;;;;;8.00;1.92;;;;;;;;;;5094796;28;20367;-83
2023/10/05 02:24:51;;;;;;;6.43;1.83;;;;;;;;;;5113047;28;20028;-87
2023/10/05 02:27:17;;;;;;;5.68;2.13;;;;;;;;;;5112990;28;20491;-83
2023/10/05 02:29:44;;;;;;;7.45;2.00;;;;;;;;;;5112726;28;20446;-84
2023/10/05 02:32:14;;;;;;;6.55;2.10;;;;;;;;;;5109104;28;20115;-85
2023/10/05 02:34:42;;;;;;;3.83;2.05;;;;;;;;;;5095098;28;20063;-84
2023/10/05 02:37:11;;;;;;;5.60;2.47;;;;;;;;;;5094572;28;20471;-84
2023/10/05 02:39:40;;;;;;;3.17;1.80;;;;;;;;;;5112533;28;20020;-84
2023/10/05 02:42:11;;;;;;;5.43;2.28;;;;;;;;;;5093864;28;20046;-84
2023/10/05 02:44:38;;;;;;;3.33;2.10;;;;;;;;;;5094055;28;20123;-85
2023/10/05 02:47:12;;;;;;;5.35;2.45;;;;;;;;;;5112165;28;20020;-84
2023/10/05 02:49:43;;;;;;;9.35;2.22;;;;;;;;;;5112366;28;20034;-84
2023/10/05 02:52:13;;;;;;;3.40;2.00;;;;;;;;;;5093137;28;20028;-84
2023/10/05 02:54:49;;;;;;;3.00;1.92;;;;;;;;;;5112040;28;20073;-86
2023/10/05 02:57:16;;;;;;;7.00;2.50;;;;;;;;;;5095896;28;20103;-86
2023/10/05 02:59:46;;;;;;;9.07;2.38;;;;;;;;;;5094890;28;20483;-83
2023/10/05 03:02:16;;;;;;;5.20;2.47;;;;;;;;;;5113215;28;20026;-85
2023/10/05 03:04:57;;;;;;;9.27;2.72;;;;;;;;;;5094860;28;20114;-83
2023/10/05 03:07:25;;;;;;;5.35;2.70;;;;;;;;;;5093566;28;20024;-86
2023/10/05 03:09:52;;;;;;;3.03;2.15;;;;;;;;;;5111864;28;20063;-87
2023/10/05 03:12:20;;;;;;;6.43;2.92;;;;;;;;;;5084664;28;20052;-86
2023/10/05 03:14:49;;;;;;;3.90;2.45;;;;;;;;;;5111202;28;20035;-85
2023/10/05 03:17:22;;;;;;;6.28;2.20;;;;;;;;;;5112623;28;20042;-86
2023/10/05 03:19:51;;;;;;;4.93;2.40;;;;;;;;;;5093881;28;20066;-84
2023/10/05 03:22:18;;;;;;;8.43;2.83;;;;;;;;;;5112761;28;20019;-85
2023/10/05 03:24:44;;;;;;;6.70;2.47;;;;;;;;;;5093891;28;20031;-85
2023/10/05 03:27:11;;;;;;;7.75;2.85;;;;;;;;;;5111806;28;20130;-84
2023/10/05 03:29:38;;;;;;;8.20;3.30;;;;;;;;;;5111710;28;20156;-86
2023/10/05 03:34:34;;;;;;;8.75;3.00;;;;;;;;;;5110514;28;20036;-86
2023/10/05 03:37:06;;;;;;;8.63;3.50;;;;;;;;;;5110483;28;20028;-84
2023/10/05 03:39:38;;;;;;;12.32;3.90;;;;;;;;;;5092817;28;20062;-87
2023/10/05 03:42:05;;;;;;;9.45;3.13;;;;;;;;;;5111458;28;20023;-84
2023/10/05 03:44:31;;;;;;;9.23;3.03;;;;;;;;;;5093231;28;20392;-85
2023/10/05 03:46:57;;;;;;;7.80;3.03;;;;;;;;;;5111317;28;20490;-84
2023/10/05 03:49:24;;;;;;;7.50;3.10;;;;;;;;;;5109967;28;20038;-84
2023/10/05 03:51:50;;;;;;;7.22;2.85;;;;;;;;;;5111207;28;20016;-85
2023/10/05 03:54:20;;;;;;;8.10;3.38;;;;;;;;;;5093760;28;20035;-86
2023/10/05 03:56:50;;;;;;;13.38;3.83;;;;;;;;;;5093547;28;20051;-84
2023/10/05 03:59:16;;;;;;;8.95;2.80;;;;;;;;;;5111933;28;20049;-84
2023/10/05 04:01:48;;;;;;;11.15;3.13;;;;;;;;;;5111111;28;20032;-85
2023/10/05 04:04:16;;;;;;;6.22;2.95;;;;;;;;;;5092999;28;20477;-85
2023/10/05 04:06:42;;;;;;;6.45;3.20;;;;;;;;;;5095559;28;20027;-86
2023/10/05 04:09:15;;;;;;;7.75;3.08;;;;;;;;;;5109728;28;20095;-85
2023/10/05 04:11:43;;;;;;;6.47;3.03;;;;;;;;;;5091925;28;20434;-84
2023/10/05 04:14:09;;;;;;;11.47;3.73;;;;;;;;;;5092342;28;20031;-83
2023/10/05 04:16:35;;;;;;;8.00;2.92;;;;;;;;;;5092365;28;21973;-83
2023/10/05 04:19:04;;;;;;;10.32;3.53;;;;;;;;;;5110864;28;20032;-85
2023/10/05 04:21:32;;;;;;;9.70;3.28;;;;;;;;;;5110769;28;20028;-86
2023/10/05 04:24:02;;;;;;;17.73;3.65;;;;;;;;;;5110591;28;20027;-84
2023/10/05 04:26:37;;;;;;;9.40;3.50;;;;;;;;;;5092021;28;20408;-84
2023/10/05 04:29:04;;;;;;;9.10;3.08;;;;;;;;;;5110522;28;20478;-85
2023/10/05 04:31:31;;;;;;;10.00;2.97;;;;;;;;;;5091329;28;20032;-83
2023/10/05 04:33:57;;;;;;;7.63;3.08;;;;;;;;;;5110639;28;20487;-85
2023/10/05 04:36:26;;;;;;;9.70;3.40;;;;;;;;;;5110072;28;20019;-85
2023/10/05 04:38:56;;;;;;;8.10;2.90;;;;;;;;;;5110852;28;20042;-84
2023/10/05 04:41:31;;;;;;;7.65;2.63;;;;;;;;;;5092149;28;20023;-84
2023/10/05 04:43:57;;;;;;;6.53;3.50;;;;;;;;;;5091597;28;20030;-87
2023/10/05 04:46:23;;;;;;;6.35;3.17;;;;;;;;;;5091808;28;20028;-86
2023/10/05 04:48:55;;;;;;;4.45;2.65;;;;;;;;;;5091872;28;20038;-86
2023/10/05 04:51:26;;;;;;;7.55;2.90;;;;;;;;;;5097001;28;20028;-86
2023/10/05 04:53:54;;;;;;;6.68;3.17;;;;;;;;;;5084277;28;20564;-85
2023/10/05 04:56:35;;;;;;;7.05;3.03;;;;;;;;;;5108965;28;20554;-86
2023/10/05 05:07:06;;;;;;;8.52;3.17;;;;;;;;;;5110026;28;20123;-84
2023/10/05 05:09:34;;;;;;;10.88;3.03;;;;;;;;;;5108975;28;20034;-85
2023/10/05 05:12:04;;;;;;;5.15;2.72;;;;;;;;;;5090633;28;20024;-84
2023/10/05 05:14:34;;;;;;;9.88;2.97;;;;;;;;;;5098367;28;20030;-84
2023/10/05 05:17:06;;;;;;;5.68;2.97;;;;;;;;;;5096243;28;20024;-85
2023/10/05 05:19:35;;;;;;;9.45;2.80;;;;;;;;;;5093268;28;20025;-86
2023/10/05 05:22:02;;;;;;;;;;;;;;;;;;5096804;28;20057;-85
2023/10/05 05:24:28;;;;;;;8.90;3.03;;;;;;;;;;5088854;28;20306;-83
2023/10/05 05:27:00;;;;;;;7.43;2.85;;;;;;;;;;5109121;28;20340;-85
2023/10/05 05:29:33;;;;;;;4.75;2.92;;;;;;;;;;5108603;28;20094;-85
2023/10/05 05:32:12;;;;;;;5.82;2.85;;;;;;;;;;5108710;28;20502;-84
2023/10/05 05:34:41;;;;;;;8.55;3.35;;;;;;;;;;5109262;28;20023;-86
2023/10/05 05:37:13;;;;;;;6.60;3.00;;;;;;;;;;5091424;28;20039;-86
2023/10/05 05:39:39;;;;;;;6.85;2.90;;;;;;;;;;5090285;28;20035;-85
2023/10/05 05:42:14;;;;;;;3.90;2.33;;;;;;;;;;5091409;28;20360;-84
2023/10/05 05:44:43;;;;;;;6.47;2.55;;;;;;;;;;5103028;28;20050;-84
2023/10/05 05:47:14;;;;;;;3.47;2.35;;;;;;;;;;5071143;28;20415;-84
2023/10/05 05:49:46;;;;;;;4.70;2.72;;;;;;;;;;5070826;28;20061;-86
2023/10/05 05:52:13;;;;;;;8.27;2.70;;;;;;;;;;5091999;28;20081;-87
2023/10/05 05:54:41;;;;;;;6.20;2.65;;;;;;;;;;5089097;28;20027;-85
2023/10/05 05:57:07;;;;;;;5.82;3.15;;;;;;;;;;5090126;28;20030;-84
2023/10/05 05:59:38;;;;;;;6.30;3.33;;;;;;;;;;5090045;28;20031;-86
2023/10/05 06:02:06;;;;;;;10.07;3.30;;;;;;;;;;5108140;28;20032;-86
2023/10/05 06:04:32;;;;;;;7.03;2.92;;;;;;;;;;5109211;28;20390;-88
2023/10/05 06:06:59;;;;;;;7.75;3.03;;;;;;;;;;5105847;28;20039;-84
2023/10/05 06:09:27;;;;;;;4.80;2.50;;;;;;;;;;5107530;28;20042;-84
2023/10/05 06:11:53;;;;;;;6.40;2.97;;;;;;;;;;5090973;28;20034;-87
2023/10/05 06:14:19;;;;;;;5.32;3.03;;;;;;;;;;5108373;28;20455;-85
2023/10/05 06:16:45;;;;;;;5.07;2.80;;;;;;;;;;5089442;28;20030;-85
2023/10/05 06:19:12;;;;;;;3.88;2.30;;;;;;;;;;5090397;28;20020;-85
2023/10/05 06:21:39;;;;;;;4.93;2.78;;;;;;;;;;5125466;28;20027;-86
2023/10/05 06:24:05;;;;;;;8.98;3.03;;;;;;;;;;5128700;28;20028;-85
2023/10/05 06:26:31;;;;;;;7.53;3.10;;;;;;;;;;5093344;28;20031;-86
2023/10/05 06:28:58;;;;;;;6.53;3.03;;;;;;;;;;5109000;28;20020;-85
2023/10/05 06:31:24;;;;;;;5.97;2.92;;;;;;;;;;5094427;28;20035;-85
2023/10/05 06:33:52;;;;;;;6.72;2.80;;;;;;;;;;5111491;28;20026;-86
2023/10/05 06:36:18;;;;;;;7.30;3.13;;;;;;;;;;5111958;28;20036;-84
2023/10/05 06:38:44;;;;;;;6.38;2.83;;;;;;;;;;5092312;28;20028;-86
2023/10/05 06:41:11;;;;;;;8.32;2.90;;;;;;;;;;5094060;28;20028;-84
2023/10/05 06:43:38;;;;;;;6.03;2.90;;;;;;;;;;5111212;28;20030;-84
2023/10/05 06:46:17;;;;;;;7.25;3.05;;;;;;;;;;5111369;28;20118;-84
2023/10/05 06:48:43;;;;;;;7.03;2.95;;;;;;;;;;5111376;28;20027;-83
2023/10/05 06:51:09;;;;;;;5.72;3.00;;;;;;;;;;5111595;28;20031;-84
2023/10/05 06:53:37;;;;;;;12.30;3.65;;;;;;;;;;5109995;28;20016;-85
2023/10/05 06:56:03;;;;;;;10.18;3.75;;;;;;;;;;5093064;28;20030;-84
2023/10/05 06:58:29;;;;;;;6.35;3.60;;;;;;;;;;5110925;28;20020;-84
2023/10/05 07:00:55;;;;;;;7.95;3.38;;;;;;;;;;5093369;28;20403;-85
2023/10/05 07:03:21;;;;;;;9.55;4.03;;;;;;;;;;5111325;28;20055;-86
2023/10/05 07:05:47;;;;;;;6.78;3.30;;;;;;;;;;5111439;28;20039;-87
2023/10/05 07:08:14;;;;;;;11.98;3.63;;;;;;;;;;5111008;28;20024;-86
2023/10/05 07:10:41;;;;;;;8.32;3.60;;;;;;;;;;5091420;28;20074;-87
2023/10/05 07:13:09;;;;;;;5.82;3.38;;;;;;;;;;5094723;28;20382;-86
2023/10/05 07:15:35;;;;;;;4.03;3.05;;;;;;;;;;5092388;28;20031;-87
2023/10/05 07:18:01;;;;;;;9.63;3.45;;;;;;;;;;5110794;28;20575;-88
2023/10/05 07:20:27;;;;;;;6.47;3.30;;;;;;;;;;5093737;28;20035;-87
2023/10/05 07:22:55;;;;;;;7.05;3.25;;;;;;;;;;5110250;28;20023;-87
2023/10/05 07:25:21;;;;;;;8.60;3.38;;;;;;;;;;5092029;28;20406;-88
2023/10/05 07:27:47;;;;;;;12.07;3.67;;;;;;;;;;5094666;28;20027;-87
2023/10/05 07:30:17;;;;;;;10.10;4.07;;;;;;;;;;5090528;28;20085;-88
2023/10/05 07:32:43;;;;;;;10.88;4.00;;;;;;;;;;5108831;28;20038;-88
2023/10/05 07:35:12;;;;;;;8.63;3.70;;;;;;;;;;5092958;28;20019;-88
2023/10/05 07:37:39;;;;;;;8.95;3.63;;;;;;;;;;5091794;28;20059;-87
2023/10/05 07:40:07;;;;;;;8.52;3.45;;;;;;;;;;5107276;28;20036;-88
2023/10/05 07:42:33;;;;;;;13.57;4.10;;;;;;;;;;5089595;28;20027;-87
2023/10/05 07:45:00;;;;;;;13.82;4.50;;;;;;;;;;5089006;28;20413;-87
2023/10/05 07:47:26;;;;;;;9.40;3.80;;;;;;;;;;5102811;28;20037;-87
2023/10/05 07:49:53;;;;;;;14.02;3.85;;;;;;;;;;5092283;28;20107;-87
2023/10/05 07:52:19;;;;;;;10.48;3.83;;;;;;;;;;5110886;28;20394;-86
2023/10/05 07:54:46;;;;;;;12.52;4.07;;;;;;;;;;5109493;28;20509;-87
2023/10/05 07:57:13;;;;;;;7.07;3.50;;;;;;;;;;5102380;28;20121;-86
2023/10/05 07:59:40;;;;;;;8.32;3.88;;;;;;;;;;5108408;28;20380;-86
2023/10/05 08:02:07;;;;;;;10.75;3.55;;;;;;;;;;5108982;28;20482;-87
2023/10/05 08:04:33;;;;;;;5.97;3.15;;;;;;;;;;5108874;28;20441;-87
2023/10/05 08:06:59;;;;;;;16.35;4.18;;;;;;;;;;5110009;28;20031;-86
2023/10/05 08:09:27;;;;;;;7.28;3.00;;;;;;;;;;5109875;28;20055;-87
2023/10/05 08:11:53;;;;;;;12.65;4.43;;;;;;;;;;5090553;28;20034;-86
2023/10/05 08:14:20;;;;;;;10.25;3.70;;;;;;;;;;5081785;28;20055;-86
2023/10/05 08:16:49;;;;;;;7.57;3.10;;;;;;;;;;5073346;28;20035;-87
2023/10/05 08:19:15;;;;;;;11.70;3.63;;;;;;;;;;5092000;28;20016;-86
2023/10/05 08:21:42;;;;;;;8.60;2.85;;;;;;;;;;5091119;28;20511;-87
2023/10/05 08:24:08;;;;;;;5.88;3.13;;;;;;;;;;5109065;28;20034;-87
2023/10/05 08:26:34;;;;;;;10.90;3.33;;;;;;;;;;5089878;28;20024;-88
2023/10/05 08:29:01;;;;;;;11.98;3.03;;;;;;;;;;5110804;28;20103;-87
2023/10/05 08:31:28;;;;;;;12.93;3.20;;;;;;;;;;5092352;28;20059;-87
2023/10/05 08:33:54;;;;;;;9.18;3.15;;;;;;;;;;5109314;28;20047;-86
2023/10/05 08:36:21;;;;;;;12.20;3.40;;;;;;;;;;5109241;28;20588;-85
2023/10/05 08:38:50;;;;;;;10.35;3.13;;;;;;;;;;5109462;28;20034;-86
2023/10/05 08:41:39;;;;;;;7.68;3.03;;;;;;;;;;5097086;28;20372;-87
2023/10/05 08:44:26;;;;;;;11.40;3.25;;;;;;;;;;5107208;28;20031;-87
2023/10/05 08:46:52;;;;;;;7.90;3.42;;;;;;;;;;5091634;28;20289;-86
2023/10/05 08:49:19;;;;;;;9.57;2.88;;;;;;;;;;5108943;28;20055;-87
2023/10/05 08:51:45;;;;;;;11.07;3.40;;;;;;;;;;5087500;28;20036;-86
2023/10/05 08:54:13;;;;;;;8.82;3.55;;;;;;;;;;5106579;28;20039;-85
2023/10/05 08:56:47;;;;;;;13.15;3.15;;;;;;;;;;5098123;27;21685;-87
2023/10/05 08:59:13;;;;;;;11.55;2.83;;;;;;;;;;5095956;28;20052;-86
2023/10/05 09:01:42;;;;;;;11.80;3.28;;;;;;;;;;5105823;28;20020;-87
2023/10/05 09:04:23;;;;;;;8.40;3.13;;;;;;;;;;5108893;28;20169;-86
2023/10/05 09:06:52;;;;;;;12.88;3.30;;;;;;;;;;5108670;28;20039;-88
2023/10/05 09:12:16;;;;;;;7.80;3.10;;;;;;;;;;5107405;28;20107;-86
2023/10/05 09:14:43;;;;;;;13.95;3.33;;;;;;;;;;5107226;28;20031;-87
2023/10/05 09:17:10;;;;;;;9.35;3.25;;;;;;;;;;5106558;28;20019;-91
2023/10/05 09:19:37;;;;;;;10.60;2.50;;;;;;;;;;5090545;28;20038;-87
2023/10/05 09:22:10;;;;;;;13.00;2.70;;;;;;;;;;5106660;28;20047;-87
2023/10/05 09:24:37;;;;;;;14.00;3.00;;;;;;;;;;5089214;28;20388;-86
2023/10/05 09:27:19;;;;;;;14.32;3.20;;;;;;;;;;5108799;28;20028;-86
2023/10/05 09:29:45;;;;;;;10.90;2.45;;;;;;;;;;5106582;28;20024;-85
2023/10/05 09:32:22;;;;;;;6.40;2.37;;;;;;;;;;5108383;28;20071;-86
2023/10/05 09:34:51;;;;;;;8.30;2.38;;;;;;;;;;5088382;28;20373;-85
2023/10/05 09:37:18;;;;;;;13.45;2.78;;;;;;;;;;5096405;28;20027;-85
2023/10/05 09:39:49;;;;;;;8.02;2.70;;;;;;;;;;5102441;28;20019;-85
2023/10/05 09:42:16;;;;;;;11.80;3.05;;;;;;;;;;5102847;28;20034;-84
2023/10/05 09:44:50;;;;;;;6.22;2.40;;;;;;;;;;5106959;28;20204;-85
2023/10/05 09:47:18;;;;;;;9.43;2.38;;;;;;;;;;5121435;28;20552;-88
2023/10/05 09:49:45;;;;;;;5.80;2.40;;;;;;;;;;5103024;28;20125;-86
2023/10/05 09:52:12;;;;;;;9.65;2.80;;;;;;;;;;5108596;28;20032;-86
2023/10/05 09:54:40;;;;;;;8.25;2.38;;;;;;;;;;5108452;28;20030;-86
2023/10/05 09:57:10;;;;;;;7.65;2.45;;;;;;;;;;5108526;28;20080;-86
2023/10/05 09:59:41;;;;;;;9.88;2.83;;;;;;;;;;5108379;28;20022;-86
2023/10/05 10:02:12;;;;;;;8.75;3.58;;;;;;;;;;5090125;28;20023;-86
2023/10/05 10:04:39;;;;;;;7.78;2.45;;;;;;;;;;5110438;28;20055;-87
2023/10/05 10:07:22;;;;;;;8.60;2.37;;;;;;;;;;5113081;28;20035;-87
2023/10/05 10:09:55;;;;;;;8.55;2.20;;;;;;;;;;5094365;28;20547;-90
2023/10/05 10:12:25;;;;;;;7.90;2.60;;;;;;;;;;5112595;28;20031;-85
2023/10/05 10:14:53;;;;;;;11.68;2.55;;;;;;;;;;5112170;28;20043;-85
2023/10/05 10:17:27;;;;;;;10.38;2.97;;;;;;;;;;5091414;28;20384;-85
2023/10/05 10:20:05;;;;;;;5.05;2.20;;;;;;;;;;5108237;28;20023;-85
2023/10/05 10:22:46;;;;;;;8.77;2.17;;;;;;;;;;5084783;28;20392;-86
2023/10/05 10:25:31;;;;;;;6.47;1.85;;;;;;;;;;5104326;28;20052;-86
2023/10/05 10:28:16;;;;;;;8.35;2.10;;;;;;;;;;5093855;28;20019;-85
2023/10/05 10:31:11;;;;;;;7.28;2.30;;;;;;;;;;5111786;28;20487;-85
2023/10/05 10:33:37;;;;;;;8.85;2.53;;;;;;;;;;5093155;28;20412;-86
2023/10/05 10:36:06;;;;;;;8.82;2.00;;;;;;;;;;5112438;28;20055;-86
2023/10/05 10:38:32;;;;;;;4.97;2.13;;;;;;;;;;5109141;28;20490;-85
2023/10/05 10:41:15;;;;;;;6.55;2.22;;;;;;;;;;5111480;28;20028;-85
2023/10/05 10:43:45;;;;;;;8.18;2.10;;;;;;;;;;5110748;28;20372;-86
2023/10/05 10:46:20;;;;;;;7.18;2.28;;;;;;;;;;5111426;28;20433;-86
2023/10/05 10:48:59;;;;;;;8.65;2.30;;;;;;;;;;5110090;28;20031;-86
2023/10/05 10:51:31;;;;;;;7.53;2.25;;;;;;;;;;5099132;28;20102;-86
2023/10/05 10:53:59;;;;;;;8.45;2.10;;;;;;;;;;5106530;28;20495;-86
2023/10/05 10:56:35;;;;;;;7.03;2.00;;;;;;;;;;5110238;28;20012;-86
2023/10/05 10:59:11;;;;;;;8.00;3.13;;;;;;;;;;5091908;28;20035;-86
2023/10/05 11:01:41;;;;;;;8.07;2.10;;;;;;;;;;5111204;28;20040;-86
2023/10/05 11:04:23;;;;;;;8.60;2.35;;;;;;;;;;5111480;28;20024;-87
2023/10/05 11:06:50;;;;;;;9.45;2.95;;;;;;;;;;5092923;28;20058;-86
2023/10/05 11:09:18;;;;;;;8.88;2.20;;;;;;;;;;5091863;28;20027;-87
2023/10/05 11:11:44;;;;;;;10.30;2.35;;;;;;;;;;5111244;28;20023;-87
2023/10/05 11:14:21;;;;;;;9.07;2.35;;;;;;;;;;5111280;28;20030;-85
2023/10/05 11:16:59;;;;;;;8.35;2.10;;;;;;;;;;5109879;28;20058;-87
2023/10/05 11:19:34;;;;;;;8.63;1.90;;;;;;;;;;5117262;27;20011;-86
2023/10/05 11:22:12;;;;;;;6.30;1.95;;;;;;;;;;5130250;27;20030;-86
2023/10/05 11:24:57;;;;;;;9.20;2.20;;;;;;;;;;5124667;27;20572;-86
2023/10/05 11:27:23;;;;;;;5.40;2.28;;;;;;;;;;5093417;28;20072;-85
2023/10/05 11:29:55;;;;;;;4.78;2.03;;;;;;;;;;5110907;28;20072;-86
2023/10/05 11:32:24;;;;;;;4.10;1.65;;;;;;;;;;5109585;28;20050;-84
2023/10/05 11:34:55;;;;;;;6.57;2.25;;;;;;;;;;5116244;27;20027;-85
2023/10/05 11:37:25;;;;;;;10.13;2.28;;;;;;;;;;5088837;28;20102;-84
2023/10/05 11:39:58;;;;;;;5.20;2.10;;;;;;;;;;5112032;27;20030;-86
2023/10/05 11:42:24;;;;;;;5.80;1.70;;;;;;;;;;5098882;28;20411;-86
2023/10/05 11:45:00;;;;;;;6.70;1.90;;;;;;;;;;5092231;28;20058;-85
2023/10/05 11:47:35;;;;;;;7.20;2.05;;;;;;;;;;5101229;27;20477;-85
2023/10/05 11:50:07;;;;;;;4.15;1.63;;;;;;;;;;5095672;28;20032;-85
2023/10/05 11:52:37;;;;;;;5.28;1.98;;;;;;;;;;5108985;28;20132;-86
2023/10/05 11:55:06;;;;;;;10.20;2.20;;;;;;;;;;5094244;28;20032;-93
2023/10/05 11:57:33;;;;;;;7.47;2.53;;;;;;;;;;5094497;28;20619;-92
2023/10/05 12:00:06;;;;;;;9.82;1.98;;;;;;;;;;5095292;28;20035;-94
2023/10/05 12:02:35;;;;;;;5.95;1.80;;;;;;;;;;5074441;28;20028;-93
2023/10/05 12:05:03;;;;;;;4.65;1.98;;;;;;;;;;5074796;28;20036;-92
2023/10/05 12:07:29;;;;;;;5.15;2.00;;;;;;;;;;5074292;28;20077;-87
2023/10/05 12:09:55;;;;;;;8.15;2.20;;;;;;;;;;5090005;28;20031;-85
2023/10/05 12:12:22;;;;;;;6.78;1.77;;;;;;;;;;5105248;28;20104;-87
2023/10/05 12:14:48;;;;;;;5.78;2.25;;;;;;;;;;5109410;28;20395;-85
2023/10/05 12:17:16;;;;;;;5.15;1.95;;;;;;;;;;5107461;28;20089;-86
2023/10/05 12:19:42;;;;;;;6.88;1.95;;;;;;;;;;5109427;28;20119;-86
2023/10/05 12:22:13;;;;;;;9.40;2.05;;;;;;;;;;5110642;28;20082;-86
2023/10/05 12:24:39;;;;;;;7.90;1.88;;;;;;;;;;5107518;28;20085;-85
2023/10/05 12:27:20;;;;;;;8.35;1.90;;;;;;;;;;5109191;28;20031;-85
2023/10/05 12:29:46;;;;;;;8.32;2.10;;;;;;;;;;5108743;28;20019;-84
2023/10/05 12:32:15;;;;;;;4.47;1.92;;;;;;;;;;5108306;28;20384;-85
2023/10/05 12:34:47;;;;;;;6.03;1.88;;;;;;;;;;5109686;28;20073;-85
2023/10/05 12:37:17;;;;;;;4.38;2.05;;;;;;;;;;5109622;28;20106;-85
2023/10/05 12:39:44;;;;;;;4.30;2.03;;;;;;;;;;5091234;28;20471;-85
2023/10/05 12:42:10;;;;;;;4.57;1.77;;;;;;;;;;5110168;28;20076;-86
2023/10/05 12:44:36;;;;;;;9.13;2.42;;;;;;;;;;5108610;28;20117;-85
2023/10/05 12:47:07;;;;;;;10.55;2.20;;;;;;;;;;5109444;28;20039;-85
2023/10/05 12:49:33;;;;;;;7.72;2.10;;;;;;;;;;5092420;28;20399;-86
2023/10/05 12:51:59;;;;;;;6.03;2.05;;;;;;;;;;5091095;28;20028;-87
2023/10/05 12:54:28;;;;;;;12.90;2.42;;;;;;;;;;5108767;28;20031;-85
2023/10/05 12:56:55;;;;;;;7.63;2.20;;;;;;;;;;5108163;28;20020;-86
2023/10/05 12:59:21;;;;;;;10.50;2.50;;;;;;;;;;5109327;28;20028;-87
2023/10/05 13:01:48;;;;;;;8.32;2.00;;;;;;;;;;5109239;28;20100;-87
2023/10/05 13:04:17;;;;;;;11.07;2.30;;;;;;;;;;5108790;28;20023;-87
2023/10/05 13:06:44;;;;;;;6.68;1.92;;;;;;;;;;5095233;28;20061;-86
2023/10/05 13:09:13;;;;;;;7.10;2.03;;;;;;;;;;5102621;27;20027;-86
2023/10/05 13:11:39;;;;;;;5.20;2.40;;;;;;;;;;5111925;27;20030;-86
2023/10/05 13:14:09;;;;;;;7.30;1.80;;;;;;;;;;5118753;27;20023;-87
2023/10/05 13:16:38;;;;;;;7.93;2.20;;;;;;;;;;5108473;28;20040;-86
2023/10/05 13:19:09;;;;;;;5.03;1.92;;;;;;;;;;5108881;28;20030;-87
2023/10/05 13:21:36;;;;;;;8.32;1.90;;;;;;;;;;5108270;28;20026;-86
2023/10/05 13:24:02;;;;;;;5.10;1.75;;;;;;;;;;5107844;28;20101;-85
2023/10/05 13:26:29;;;;;;;4.55;1.55;;;;;;;;;;5112208;28;20080;-84
2023/10/05 13:28:59;;;;;;;7.60;2.20;;;;;;;;;;5109040;28;20107;-85
2023/10/05 13:31:25;;;;;;;7.38;2.25;;;;;;;;;;5108406;28;20035;-85
2023/10/05 13:33:54;;;;;;;4.88;1.80;;;;;;;;;;5090357;28;20024;-84
2023/10/05 13:36:21;;;;;;;6.97;1.80;;;;;;;;;;5108377;28;20079;-85
2023/10/05 13:38:47;;;;;;;6.35;2.22;;;;;;;;;;5101703;28;20023;-85
2023/10/05 13:41:13;;;;;;;6.10;1.75;;;;;;;;;;5094521;28;20032;-86
2023/10/05 13:43:39;;;;;;;7.03;1.90;;;;;;;;;;5110473;28;20020;-86
2023/10/05 13:46:35;;;;;;;4.47;1.65;;;;;;;;;;5111795;28;20040;-85
2023/10/05 13:49:01;;;;;;;7.95;1.92;;;;;;;;;;5112941;28;20077;-85
2023/10/05 13:51:33;;;;;;;4.45;2.10;;;;;;;;;;5110290;28;20055;-84
2023/10/05 13:54:06;;;;;;;8.77;2.22;;;;;;;;;;5112354;28;20031;-83
2023/10/05 13:56:33;;;;;;;7.40;2.15;;;;;;;;;;5111673;27;20112;-85
2023/10/05 13:59:02;;;;;;;9.45;1.98;;;;;;;;;;5113055;27;20166;-85
2023/10/05 14:01:40;;;;;;;6.30;2.45;;;;;;;;;;5125510;27;20045;-86
2023/10/05 14:04:08;;;;;;;8.30;3.10;;;;;;;;;;5112899;28;20041;-85
2023/10/05 14:06:34;;;;;;;7.57;2.20;;;;;;;;;;5111798;28;20043;-83
2023/10/05 14:09:05;;;;;;;5.30;2.20;;;;;;;;;;5112115;28;20086;-84
2023/10/05 14:11:34;;;;;;;8.82;1.80;;;;;;;;;;5111853;28;20027;-84
2023/10/05 14:14:01;;;;;;;5.32;1.90;;;;;;;;;;5094096;28;20110;-84
2023/10/05 14:16:27;;;;;;;2.83;1.60;;;;;;;;;;5112189;28;20045;-83
2023/10/05 14:18:53;;;;;;;9.30;2.05;;;;;;;;;;5092149;28;20032;-83
2023/10/05 14:21:21;;;;;;;6.53;2.17;;;;;;;;;;5112064;28;20433;-83
2023/10/05 14:23:50;;;;;;;6.55;1.88;;;;;;;;;;5112247;28;20527;-84
2023/10/05 14:26:17;;;;;;;3.95;1.80;;;;;;;;;;5109621;28;20036;-83
2023/10/05 14:28:43;;;;;;;5.95;1.80;;;;;;;;;;5092901;28;20028;-84
2023/10/05 14:31:09;;;;;;;7.30;2.17;;;;;;;;;;5091718;28;20032;-84
2023/10/05 14:33:36;;;;;;;6.10;1.88;;;;;;;;;;5106146;28;20493;-83
2023/10/05 14:36:02;;;;;;;6.53;2.10;;;;;;;;;;5111799;28;20158;-86
2023/10/05 14:38:29;;;;;;;7.07;2.28;;;;;;;;;;5111903;28;20498;-85
2023/10/05 14:40:56;;;;;;;8.47;2.00;;;;;;;;;;5111368;28;20093;-87
2023/10/05 14:43:34;;;;;;;4.07;1.85;;;;;;;;;;5112265;28;20054;-87
2023/10/05 14:46:00;;;;;;;;;;;;;;;;;;5094274;28;20475;-87
2023/10/05 14:48:30;;;;;;;5.70;1.92;;;;;;;;;;5091100;28;20328;-86
2023/10/05 14:51:10;;;;;;;7.43;2.20;;;;;;;;;;5109310;28;20084;-85
2023/10/05 14:53:38;;;;;;;7.65;2.20;;;;;;;;;;5112167;28;20018;-86
2023/10/05 14:56:11;;;;;;;4.97;1.90;;;;;;;;;;5112163;28;20102;-86
2023/10/05 14:58:37;;;;;;;12.90;2.42;;;;;;;;;;5111567;28;20088;-86
2023/10/05 15:01:06;;;;;;;6.90;2.17;;;;;;;;;;5111910;28;20479;-86
2023/10/05 15:03:31;;;;;;;;;;;;;;;;;;5094043;27;20514;-86
2023/10/05 15:05:58;;;;;;;7.85;2.30;;;;;;;;;;5116252;27;19912;-86
2023/10/05 15:08:24;;;;;;;6.60;2.63;;;;;;;;;;5111001;28;20530;-86
2023/10/05 15:10:50;;;;;;;7.53;2.10;;;;;;;;;;5093453;28;20065;-86
2023/10/05 15:13:17;;;;;;;3.50;1.80;;;;;;;;;;5093095;28;20023;-86
2023/10/05 15:15:43;;;;;;;6.22;2.00;;;;;;;;;;5111383;28;20032;-90
2023/10/05 15:18:09;;;;;;;5.05;1.98;;;;;;;;;;5111307;28;20270;-86
2023/10/05 15:20:37;;;;;;;6.95;2.30;;;;;;;;;;5093382;28;20028;-86